sensor_id;sensor_type;location;lat;lon;timestamp;P1;durP1;ratioP1;P2;durP2;ratioP2
78224;SDS011;67498;53.650;10.090;2024-01-30T00:00:05;14.30;;;2.97;;
78224;SDS011;67498;53.650;10.090;2024-01-30T00:02:31;8.93;;;2.83;;
78224;SDS011;67498;53.650;10.090;2024-01-30T00:04:57;7.65;;;2.78;;
78224;SDS011;67498;53.650;10.090;2024-01-30T00:07:22;11.70;;;2.90;;
78224;SDS011;67498;53.650;10.090;2024-01-30T00:09:47;7.93;;;2.87;;
78224;SDS011;67498;53.650;10.090;2024-01-30T00:12:13;7.40;;;2.43;;
78224;SDS011;67498;53.650;10.090;2024-01-30T00:14:38;7.67;;;2.83;;
78224;SDS011;67498;53.650;10.090;2024-01-30T00:17:06;6.78;;;2.33;;
78224;SDS011;67498;53.650;10.090;2024-01-30T00:19:31;8.23;;;3.07;;
78224;SDS011;67498;53.650;10.090;2024-01-30T00:21:57;6.25;;;2.28;;
78224;SDS011;67498;53.650;10.090;2024-01-30T00:24:22;8.33;;;2.67;;
78224;SDS011;67498;53.650;10.090;2024-01-30T00:26:47;6.80;;;2.30;;
78224;SDS011;67498;53.650;10.090;2024-01-30T00:29:12;5.80;;;2.07;;
78224;SDS011;67498;53.650;10.090;2024-01-30T00:31:44;8.52;;;2.75;;
78224;SDS011;67498;53.650;10.090;2024-01-30T00:34:09;7.00;;;2.27;;
78224;SDS011;67498;53.650;10.090;2024-01-30T00:36:34;7.17;;;2.50;;
78224;SDS011;67498;53.650;10.090;2024-01-30T00:39:00;7.00;;;2.83;;
78224;SDS011;67498;53.650;10.090;2024-01-30T00:41:25;9.43;;;2.33;;
78224;SDS011;67498;53.650;10.090;2024-01-30T00:43:51;12.52;;;2.58;;
78224;SDS011;67498;53.650;10.090;2024-01-30T00:46:17;7.20;;;2.30;;
78224;SDS011;67498;53.650;10.090;2024-01-30T00:48:42;5.73;;;1.87;;
78224;SDS011;67498;53.650;10.090;2024-01-30T00:51:07;6.43;;;2.10;;
78224;SDS011;67498;53.650;10.090;2024-01-30T00:53:33;7.35;;;2.08;;
78224;SDS011;67498;53.650;10.090;2024-01-30T00:55:58;9.70;;;2.40;;
78224;SDS011;67498;53.650;10.090;2024-01-30T00:58:23;9.37;;;2.50;;
78224;SDS011;67498;53.650;10.090;2024-01-30T01:00:48;9.07;;;2.60;;
78224;SDS011;67498;53.650;10.090;2024-01-30T01:03:14;8.10;;;2.70;;
78224;SDS011;67498;53.650;10.090;2024-01-30T01:05:39;9.20;;;2.93;;
78224;SDS011;67498;53.650;10.090;2024-01-30T01:08:04;5.90;;;2.07;;
78224;SDS011;67498;53.650;10.090;2024-01-30T01:10:30;7.80;;;2.30;;
78224;SDS011;67498;53.650;10.090;2024-01-30T01:12:55;6.93;;;2.17;;
78224;SDS011;67498;53.650;10.090;2024-01-30T01:15:20;8.23;;;2.47;;
78224;SDS011;67498;53.650;10.090;2024-01-30T01:17:46;4.87;;;1.97;;
78224;SDS011;67498;53.650;10.090;2024-01-30T01:20:11;7.27;;;1.90;;
78224;SDS011;67498;53.650;10.090;2024-01-30T01:22:37;9.20;;;2.27;;
78224;SDS011;67498;53.650;10.090;2024-01-30T01:25:03;5.63;;;2.00;;
78224;SDS011;67498;53.650;10.090;2024-01-30T01:27:31;6.07;;;2.07;;
78224;SDS011;67498;53.650;10.090;2024-01-30T01:29:58;8.95;;;2.03;;
78224;SDS011;67498;53.650;10.090;2024-01-30T01:32:23;7.70;;;2.30;;
78224;SDS011;67498;53.650;10.090;2024-01-30T01:34:48;7.73;;;2.73;;
78224;SDS011;67498;53.650;10.090;2024-01-30T01:37:13;9.50;;;2.47;;
78224;SDS011;67498;53.650;10.090;2024-01-30T01:39:38;7.03;;;2.30;;
78224;SDS011;67498;53.650;10.090;2024-01-30T01:42:04;7.47;;;2.87;;
78224;SDS011;67498;53.650;10.090;2024-01-30T01:44:29;10.27;;;2.20;;
78224;SDS011;67498;53.650;10.090;2024-01-30T01:46:54;12.80;;;2.33;;
78224;SDS011;67498;53.650;10.090;2024-01-30T01:49:23;6.93;;;2.13;;
78224;SDS011;67498;53.650;10.090;2024-01-30T01:51:50;7.45;;;2.20;;
78224;SDS011;67498;53.650;10.090;2024-01-30T01:54:18;7.25;;;2.42;;
78224;SDS011;67498;53.650;10.090;2024-01-30T01:56:43;5.70;;;1.63;;
78224;SDS011;67498;53.650;10.090;2024-01-30T01:59:09;6.75;;;2.45;;
78224;SDS011;67498;53.650;10.090;2024-01-30T02:01:35;6.73;;;2.37;;
78224;SDS011;67498;53.650;10.090;2024-01-30T02:04:01;5.27;;;1.73;;
78224;SDS011;67498;53.650;10.090;2024-01-30T02:06:27;5.70;;;2.05;;
78224;SDS011;67498;53.650;10.090;2024-01-30T02:08:53;7.10;;;2.10;;
78224;SDS011;67498;53.650;10.090;2024-01-30T02:11:19;9.85;;;2.92;;
78224;SDS011;67498;53.650;10.090;2024-01-30T02:13:45;8.82;;;2.63;;
78224;SDS011;67498;53.650;10.090;2024-01-30T02:16:10;8.03;;;2.20;;
78224;SDS011;67498;53.650;10.090;2024-01-30T02:18:35;7.27;;;1.97;;
78224;SDS011;67498;53.650;10.090;2024-01-30T02:21:06;6.85;;;1.88;;
78224;SDS011;67498;53.650;10.090;2024-01-30T02:23:32;5.70;;;1.93;;
78224;SDS011;67498;53.650;10.090;2024-01-30T02:25:58;5.55;;;2.00;;
78224;SDS011;67498;53.650;10.090;2024-01-30T02:28:24;4.90;;;1.97;;
78224;SDS011;67498;53.650;10.090;2024-01-30T02:30:49;8.47;;;2.10;;
78224;SDS011;67498;53.650;10.090;2024-01-30T02:33:14;6.73;;;2.23;;
78224;SDS011;67498;53.650;10.090;2024-01-30T02:35:40;5.20;;;1.70;;
78224;SDS011;67498;53.650;10.090;2024-01-30T02:38:05;8.80;;;2.87;;
78224;SDS011;67498;53.650;10.090;2024-01-30T02:40:31;12.18;;;3.08;;
78224;SDS011;67498;53.650;10.090;2024-01-30T02:42:57;6.77;;;2.10;;
78224;SDS011;67498;53.650;10.090;2024-01-30T02:45:24;7.65;;;2.17;;
78224;SDS011;67498;53.650;10.090;2024-01-30T02:47:49;10.50;;;2.40;;
78224;SDS011;67498;53.650;10.090;2024-01-30T02:50:14;5.17;;;1.97;;
78224;SDS011;67498;53.650;10.090;2024-01-30T02:52:41;6.55;;;2.08;;
78224;SDS011;67498;53.650;10.090;2024-01-30T02:55:08;6.13;;;2.25;;
78224;SDS011;67498;53.650;10.090;2024-01-30T02:57:34;5.77;;;2.27;;
78224;SDS011;67498;53.650;10.090;2024-01-30T02:59:59;6.23;;;2.10;;
78224;SDS011;67498;53.650;10.090;2024-01-30T03:02:25;7.50;;;2.47;;
78224;SDS011;67498;53.650;10.090;2024-01-30T03:04:50;7.13;;;2.07;;
78224;SDS011;67498;53.650;10.090;2024-01-30T03:07:15;6.83;;;2.27;;
78224;SDS011;67498;53.650;10.090;2024-01-30T03:09:41;6.20;;;1.93;;
78224;SDS011;67498;53.650;10.090;2024-01-30T03:12:08;4.57;;;2.00;;
78224;SDS011;67498;53.650;10.090;2024-01-30T03:14:33;8.50;;;2.33;;
78224;SDS011;67498;53.650;10.090;2024-01-30T03:16:58;6.37;;;1.93;;
78224;SDS011;67498;53.650;10.090;2024-01-30T03:19:23;5.77;;;2.37;;
78224;SDS011;67498;53.650;10.090;2024-01-30T03:21:49;8.73;;;2.73;;
78224;SDS011;67498;53.650;10.090;2024-01-30T03:24:14;6.77;;;2.40;;
78224;SDS011;67498;53.650;10.090;2024-01-30T03:26:40;5.93;;;1.73;;
78224;SDS011;67498;53.650;10.090;2024-01-30T03:29:07;10.10;;;2.75;;
78224;SDS011;67498;53.650;10.090;2024-01-30T03:31:33;5.80;;;1.80;;
78224;SDS011;67498;53.650;10.090;2024-01-30T03:33:59;5.15;;;1.73;;
78224;SDS011;67498;53.650;10.090;2024-01-30T03:36:24;6.53;;;2.20;;
78224;SDS011;67498;53.650;10.090;2024-01-30T03:38:49;7.10;;;2.07;;
78224;SDS011;67498;53.650;10.090;2024-01-30T03:41:15;8.02;;;2.53;;
78224;SDS011;67498;53.650;10.090;2024-01-30T03:43:40;6.43;;;2.07;;
78224;SDS011;67498;53.650;10.090;2024-01-30T03:46:06;7.17;;;2.53;;
78224;SDS011;67498;53.650;10.090;2024-01-30T03:48:31;6.90;;;2.30;;
78224;SDS011;67498;53.650;10.090;2024-01-30T03:50:56;8.27;;;2.53;;
78224;SDS011;67498;53.650;10.090;2024-01-30T03:53:22;6.72;;;2.05;;
78224;SDS011;67498;53.650;10.090;2024-01-30T03:55:47;6.77;;;2.33;;
78224;SDS011;67498;53.650;10.090;2024-01-30T03:58:12;10.20;;;2.50;;
78224;SDS011;67498;53.650;10.090;2024-01-30T04:00:38;13.40;;;2.50;;
78224;SDS011;67498;53.650;10.090;2024-01-30T04:03:03;7.40;;;2.63;;
78224;SDS011;67498;53.650;10.090;2024-01-30T04:05:28;10.97;;;3.07;;
78224;SDS011;67498;53.650;10.090;2024-01-30T04:07:54;10.77;;;2.47;;
78224;SDS011;67498;53.650;10.090;2024-01-30T04:10:19;8.30;;;2.73;;
78224;SDS011;67498;53.650;10.090;2024-01-30T04:12:44;8.05;;;2.65;;
78224;SDS011;67498;53.650;10.090;2024-01-30T04:15:10;8.70;;;2.87;;
78224;SDS011;67498;53.650;10.090;2024-01-30T04:17:35;7.90;;;2.50;;
78224;SDS011;67498;53.650;10.090;2024-01-30T04:20:00;6.60;;;2.13;;
78224;SDS011;67498;53.650;10.090;2024-01-30T04:22:26;5.50;;;2.10;;
78224;SDS011;67498;53.650;10.090;2024-01-30T04:24:51;6.37;;;2.40;;
78224;SDS011;67498;53.650;10.090;2024-01-30T04:27:16;6.60;;;2.50;;
78224;SDS011;67498;53.650;10.090;2024-01-30T04:29:42;8.13;;;2.13;;
78224;SDS011;67498;53.650;10.090;2024-01-30T04:32:07;5.97;;;2.47;;
78224;SDS011;67498;53.650;10.090;2024-01-30T04:34:32;8.88;;;2.55;;
78224;SDS011;67498;53.650;10.090;2024-01-30T04:36:58;6.63;;;2.40;;
78224;SDS011;67498;53.650;10.090;2024-01-30T04:39:23;5.90;;;2.00;;
78224;SDS011;67498;53.650;10.090;2024-01-30T04:41:48;7.30;;;2.70;;
78224;SDS011;67498;53.650;10.090;2024-01-30T04:44:14;6.43;;;2.07;;
78224;SDS011;67498;53.650;10.090;2024-01-30T04:46:39;6.47;;;2.33;;
78224;SDS011;67498;53.650;10.090;2024-01-30T04:49:05;9.57;;;2.77;;
78224;SDS011;67498;53.650;10.090;2024-01-30T04:51:32;4.83;;;1.97;;
78224;SDS011;67498;53.650;10.090;2024-01-30T04:53:57;6.87;;;2.13;;
78224;SDS011;67498;53.650;10.090;2024-01-30T04:56:23;10.18;;;3.03;;
78224;SDS011;67498;53.650;10.090;2024-01-30T04:58:48;8.23;;;2.80;;
78224;SDS011;67498;53.650;10.090;2024-01-30T05:01:16;10.03;;;2.67;;
78224;SDS011;67498;53.650;10.090;2024-01-30T05:03:42;5.07;;;1.83;;
78224;SDS011;67498;53.650;10.090;2024-01-30T05:06:08;7.30;;;2.47;;
78224;SDS011;67498;53.650;10.090;2024-01-30T05:08:33;7.60;;;2.73;;
78224;SDS011;67498;53.650;10.090;2024-01-30T05:11:01;7.80;;;2.78;;
78224;SDS011;67498;53.650;10.090;2024-01-30T05:13:28;6.05;;;2.10;;
78224;SDS011;67498;53.650;10.090;2024-01-30T05:15:54;8.98;;;3.05;;
78224;SDS011;67498;53.650;10.090;2024-01-30T05:18:19;6.90;;;2.17;;
78224;SDS011;67498;53.650;10.090;2024-01-30T05:20:45;7.67;;;2.70;;
78224;SDS011;67498;53.650;10.090;2024-01-30T05:23:10;9.57;;;2.57;;
78224;SDS011;67498;53.650;10.090;2024-01-30T05:25:35;6.20;;;2.57;;
78224;SDS011;67498;53.650;10.090;2024-01-30T05:28:00;8.27;;;2.97;;
78224;SDS011;67498;53.650;10.090;2024-01-30T05:30:26;6.63;;;2.60;;
78224;SDS011;67498;53.650;10.090;2024-01-30T05:32:51;6.57;;;2.50;;
78224;SDS011;67498;53.650;10.090;2024-01-30T05:35:17;7.15;;;2.70;;
78224;SDS011;67498;53.650;10.090;2024-01-30T05:37:43;8.00;;;2.60;;
78224;SDS011;67498;53.650;10.090;2024-01-30T05:40:08;8.93;;;2.93;;
78224;SDS011;67498;53.650;10.090;2024-01-30T05:42:34;7.33;;;2.07;;
78224;SDS011;67498;53.650;10.090;2024-01-30T05:44:59;9.43;;;2.93;;
78224;SDS011;67498;53.650;10.090;2024-01-30T05:47:24;7.90;;;3.10;;
78224;SDS011;67498;53.650;10.090;2024-01-30T05:49:49;7.90;;;2.67;;
78224;SDS011;67498;53.650;10.090;2024-01-30T05:52:15;9.07;;;2.70;;
78224;SDS011;67498;53.650;10.090;2024-01-30T05:54:41;8.80;;;3.40;;
78224;SDS011;67498;53.650;10.090;2024-01-30T05:57:06;7.37;;;2.77;;
78224;SDS011;67498;53.650;10.090;2024-01-30T05:59:32;8.32;;;3.60;;
78224;SDS011;67498;53.650;10.090;2024-01-30T06:01:57;8.50;;;3.10;;
78224;SDS011;67498;53.650;10.090;2024-01-30T06:04:23;8.10;;;3.10;;
78224;SDS011;67498;53.650;10.090;2024-01-30T06:06:48;8.13;;;3.00;;
78224;SDS011;67498;53.650;10.090;2024-01-30T06:09:13;10.43;;;3.33;;
78224;SDS011;67498;53.650;10.090;2024-01-30T06:11:39;10.67;;;3.20;;
78224;SDS011;67498;53.650;10.090;2024-01-30T06:14:04;9.43;;;3.37;;
78224;SDS011;67498;53.650;10.090;2024-01-30T06:16:29;11.73;;;3.77;;
78224;SDS011;67498;53.650;10.090;2024-01-30T06:18:55;9.97;;;2.73;;
78224;SDS011;67498;53.650;10.090;2024-01-30T06:21:21;11.20;;;3.15;;
78224;SDS011;67498;53.650;10.090;2024-01-30T06:23:46;11.33;;;3.37;;
78224;SDS011;67498;53.650;10.090;2024-01-30T06:26:11;8.90;;;3.47;;
78224;SDS011;67498;53.650;10.090;2024-01-30T06:28:37;8.83;;;2.63;;
78224;SDS011;67498;53.650;10.090;2024-01-30T06:31:02;16.13;;;5.00;;
78224;SDS011;67498;53.650;10.090;2024-01-30T06:33:27;9.00;;;3.50;;
78224;SDS011;67498;53.650;10.090;2024-01-30T06:35:52;7.60;;;2.87;;
78224;SDS011;67498;53.650;10.090;2024-01-30T06:38:18;7.77;;;3.10;;
78224;SDS011;67498;53.650;10.090;2024-01-30T06:40:43;9.87;;;3.53;;
78224;SDS011;67498;53.650;10.090;2024-01-30T06:43:08;8.93;;;3.50;;
78224;SDS011;67498;53.650;10.090;2024-01-30T06:45:34;8.07;;;3.07;;
78224;SDS011;67498;53.650;10.090;2024-01-30T06:48:00;6.80;;;1.98;;
78224;SDS011;67498;53.650;10.090;2024-01-30T06:50:25;9.10;;;3.40;;
78224;SDS011;67498;53.650;10.090;2024-01-30T06:52:51;9.32;;;3.40;;
78224;SDS011;67498;53.650;10.090;2024-01-30T06:55:16;9.17;;;3.50;;
78224;SDS011;67498;53.650;10.090;2024-01-30T06:57:41;8.30;;;2.60;;
78224;SDS011;67498;53.650;10.090;2024-01-30T07:00:07;13.80;;;3.50;;
78224;SDS011;67498;53.650;10.090;2024-01-30T07:02:32;9.37;;;2.93;;
78224;SDS011;67498;53.650;10.090;2024-01-30T07:04:58;9.05;;;3.20;;
78224;SDS011;67498;53.650;10.090;2024-01-30T07:07:23;10.97;;;3.50;;
78224;SDS011;67498;53.650;10.090;2024-01-30T07:09:48;8.17;;;3.20;;
78224;SDS011;67498;53.650;10.090;2024-01-30T07:12:17;8.80;;;2.90;;
78224;SDS011;67498;53.650;10.090;2024-01-30T07:14:43;8.73;;;3.60;;
78224;SDS011;67498;53.650;10.090;2024-01-30T07:17:08;7.93;;;2.97;;
78224;SDS011;67498;53.650;10.090;2024-01-30T07:19:33;9.50;;;3.63;;
78224;SDS011;67498;53.650;10.090;2024-01-30T07:21:59;7.85;;;3.15;;
78224;SDS011;67498;53.650;10.090;2024-01-30T07:24:24;8.30;;;3.33;;
78224;SDS011;67498;53.650;10.090;2024-01-30T07:26:50;13.10;;;3.80;;
78224;SDS011;67498;53.650;10.090;2024-01-30T07:29:15;8.60;;;2.53;;
78224;SDS011;67498;53.650;10.090;2024-01-30T07:31:40;10.07;;;3.57;;
78224;SDS011;67498;53.650;10.090;2024-01-30T07:34:05;8.57;;;3.20;;
78224;SDS011;67498;53.650;10.090;2024-01-30T07:36:31;10.87;;;3.40;;
78224;SDS011;67498;53.650;10.090;2024-01-30T07:38:56;7.83;;;3.13;;
78224;SDS011;67498;53.650;10.090;2024-01-30T07:41:21;8.77;;;3.93;;
78224;SDS011;67498;53.650;10.090;2024-01-30T07:43:46;13.03;;;3.77;;
78224;SDS011;67498;53.650;10.090;2024-01-30T07:46:12;14.37;;;3.43;;
78224;SDS011;67498;53.650;10.090;2024-01-30T07:48:37;11.53;;;3.40;;
78224;SDS011;67498;53.650;10.090;2024-01-30T07:51:02;8.97;;;2.93;;
78224;SDS011;67498;53.650;10.090;2024-01-30T07:53:29;9.00;;;2.83;;
78224;SDS011;67498;53.650;10.090;2024-01-30T07:55:54;10.60;;;3.97;;
78224;SDS011;67498;53.650;10.090;2024-01-30T07:58:19;9.80;;;3.87;;
78224;SDS011;67498;53.650;10.090;2024-01-30T08:00:45;9.07;;;3.40;;
78224;SDS011;67498;53.650;10.090;2024-01-30T08:03:10;11.27;;;3.50;;
78224;SDS011;67498;53.650;10.090;2024-01-30T08:05:35;13.53;;;4.43;;
78224;SDS011;67498;53.650;10.090;2024-01-30T08:08:01;12.53;;;3.37;;
78224;SDS011;67498;53.650;10.090;2024-01-30T08:10:26;9.13;;;3.33;;
78224;SDS011;67498;53.650;10.090;2024-01-30T08:12:51;7.97;;;2.87;;
78224;SDS011;67498;53.650;10.090;2024-01-30T08:15:16;12.13;;;5.07;;
78224;SDS011;67498;53.650;10.090;2024-01-30T08:17:42;16.40;;;6.83;;
78224;SDS011;67498;53.650;10.090;2024-01-30T08:20:07;10.00;;;3.90;;
78224;SDS011;67498;53.650;10.090;2024-01-30T08:22:38;10.03;;;3.47;;
78224;SDS011;67498;53.650;10.090;2024-01-30T08:25:04;10.85;;;3.80;;
78224;SDS011;67498;53.650;10.090;2024-01-30T08:27:30;10.20;;;4.32;;
78224;SDS011;67498;53.650;10.090;2024-01-30T08:29:55;11.10;;;3.83;;
78224;SDS011;67498;53.650;10.090;2024-01-30T08:32:20;9.33;;;3.70;;
78224;SDS011;67498;53.650;10.090;2024-01-30T08:34:45;14.90;;;3.87;;
78224;SDS011;67498;53.650;10.090;2024-01-30T08:37:11;11.03;;;4.03;;
78224;SDS011;67498;53.650;10.090;2024-01-30T08:39:37;10.43;;;3.77;;
78224;SDS011;67498;53.650;10.090;2024-01-30T08:42:02;9.20;;;3.88;;
78224;SDS011;67498;53.650;10.090;2024-01-30T08:44:28;13.80;;;4.10;;
78224;SDS011;67498;53.650;10.090;2024-01-30T08:46:53;11.40;;;3.80;;
78224;SDS011;67498;53.650;10.090;2024-01-30T08:49:19;10.60;;;4.33;;
78224;SDS011;67498;53.650;10.090;2024-01-30T08:51:45;11.55;;;3.38;;
78224;SDS011;67498;53.650;10.090;2024-01-30T08:54:10;12.57;;;4.03;;
78224;SDS011;67498;53.650;10.090;2024-01-30T08:56:36;10.35;;;3.58;;
78224;SDS011;67498;53.650;10.090;2024-01-30T08:59:01;13.90;;;4.70;;
78224;SDS011;67498;53.650;10.090;2024-01-30T09:01:26;8.97;;;3.73;;
78224;SDS011;67498;53.650;10.090;2024-01-30T09:03:52;26.57;;;10.57;;
78224;SDS011;67498;53.650;10.090;2024-01-30T09:06:18;20.73;;;7.32;;
78224;SDS011;67498;53.650;10.090;2024-01-30T09:08:43;16.00;;;4.13;;
78224;SDS011;67498;53.650;10.090;2024-01-30T09:11:09;11.87;;;4.47;;
78224;SDS011;67498;53.650;10.090;2024-01-30T09:13:35;12.10;;;4.57;;
78224;SDS011;67498;53.650;10.090;2024-01-30T09:16:00;10.10;;;3.37;;
78224;SDS011;67498;53.650;10.090;2024-01-30T09:18:26;13.32;;;4.65;;
78224;SDS011;67498;53.650;10.090;2024-01-30T09:20:51;11.73;;;3.37;;
78224;SDS011;67498;53.650;10.090;2024-01-30T09:23:16;10.77;;;3.73;;
78224;SDS011;67498;53.650;10.090;2024-01-30T09:25:43;9.80;;;3.73;;
78224;SDS011;67498;53.650;10.090;2024-01-30T09:28:09;8.95;;;4.63;;
78224;SDS011;67498;53.650;10.090;2024-01-30T09:30:34;12.70;;;4.20;;
78224;SDS011;67498;53.650;10.090;2024-01-30T09:32:59;12.53;;;3.73;;
78224;SDS011;67498;53.650;10.090;2024-01-30T09:35:25;12.13;;;4.50;;
78224;SDS011;67498;53.650;10.090;2024-01-30T09:37:50;11.33;;;4.67;;
78224;SDS011;67498;53.650;10.090;2024-01-30T09:40:17;11.95;;;4.65;;
78224;SDS011;67498;53.650;10.090;2024-01-30T09:42:44;11.48;;;3.70;;
78224;SDS011;67498;53.650;10.090;2024-01-30T09:45:12;11.80;;;4.35;;
78224;SDS011;67498;53.650;10.090;2024-01-30T09:47:42;10.45;;;4.13;;
78224;SDS011;67498;53.650;10.090;2024-01-30T09:50:08;11.43;;;4.40;;
78224;SDS011;67498;53.650;10.090;2024-01-30T09:52:35;10.55;;;3.88;;
78224;SDS011;67498;53.650;10.090;2024-01-30T09:55:00;13.75;;;3.80;;
78224;SDS011;67498;53.650;10.090;2024-01-30T09:57:26;8.67;;;3.53;;
78224;SDS011;67498;53.650;10.090;2024-01-30T09:59:51;12.47;;;4.93;;
78224;SDS011;67498;53.650;10.090;2024-01-30T10:02:19;14.00;;;4.07;;
78224;SDS011;67498;53.650;10.090;2024-01-30T10:04:44;10.90;;;4.27;;
78224;SDS011;67498;53.650;10.090;2024-01-30T10:07:10;12.70;;;4.70;;
78224;SDS011;67498;53.650;10.090;2024-01-30T10:09:36;11.60;;;3.93;;
78224;SDS011;67498;53.650;10.090;2024-01-30T10:12:02;12.25;;;4.15;;
78224;SDS011;67498;53.650;10.090;2024-01-30T10:14:28;7.45;;;2.63;;
78224;SDS011;67498;53.650;10.090;2024-01-30T10:16:54;11.63;;;4.07;;
78224;SDS011;67498;53.650;10.090;2024-01-30T10:19:20;9.50;;;4.32;;
78224;SDS011;67498;53.650;10.090;2024-01-30T10:21:45;10.73;;;3.87;;
78224;SDS011;67498;53.650;10.090;2024-01-30T10:24:11;11.77;;;4.43;;
78224;SDS011;67498;53.650;10.090;2024-01-30T10:26:38;11.27;;;3.88;;
78224;SDS011;67498;53.650;10.090;2024-01-30T10:29:04;10.30;;;4.40;;
78224;SDS011;67498;53.650;10.090;2024-01-30T10:31:29;13.10;;;4.67;;
78224;SDS011;67498;53.650;10.090;2024-01-30T10:33:55;12.63;;;4.07;;
78224;SDS011;67498;53.650;10.090;2024-01-30T10:36:20;11.67;;;4.27;;
78224;SDS011;67498;53.650;10.090;2024-01-30T10:38:52;7.47;;;2.42;;
78224;SDS011;67498;53.650;10.090;2024-01-30T10:41:26;12.20;;;4.82;;
78224;SDS011;67498;53.650;10.090;2024-01-30T10:44:25;12.10;;;4.25;;
78224;SDS011;67498;53.650;10.090;2024-01-30T10:46:45;11.27;;;3.90;;
78224;SDS011;67498;53.650;10.090;2024-01-30T10:49:16;9.52;;;3.88;;
78224;SDS011;67498;53.650;10.090;2024-01-30T10:51:41;11.73;;;4.22;;
78224;SDS011;67498;53.650;10.090;2024-01-30T10:54:07;9.17;;;3.43;;
78224;SDS011;67498;53.650;10.090;2024-01-30T10:56:34;9.02;;;3.80;;
78224;SDS011;67498;53.650;10.090;2024-01-30T10:59:00;13.90;;;4.43;;
78224;SDS011;67498;53.650;10.090;2024-01-30T11:01:26;11.15;;;3.78;;
78224;SDS011;67498;53.650;10.090;2024-01-30T11:03:53;9.75;;;4.30;;
78224;SDS011;67498;53.650;10.090;2024-01-30T11:06:23;9.38;;;3.60;;
78224;SDS011;67498;53.650;10.090;2024-01-30T11:09:05;9.60;;;4.10;;
78224;SDS011;67498;53.650;10.090;2024-01-30T11:11:51;8.82;;;3.40;;
78224;SDS011;67498;53.650;10.090;2024-01-30T11:14:23;14.88;;;4.47;;
78224;SDS011;67498;53.650;10.090;2024-01-30T11:16:50;10.02;;;3.35;;
78224;SDS011;67498;53.650;10.090;2024-01-30T11:19:15;12.80;;;3.63;;
78224;SDS011;67498;53.650;10.090;2024-01-30T11:21:49;10.05;;;4.05;;
78224;SDS011;67498;53.650;10.090;2024-01-30T11:24:15;10.13;;;3.75;;
78224;SDS011;67498;53.650;10.090;2024-01-30T11:26:42;12.37;;;3.30;;
78224;SDS011;67498;53.650;10.090;2024-01-30T11:29:07;7.65;;;2.83;;
78224;SDS011;67498;53.650;10.090;2024-01-30T11:31:34;9.00;;;3.83;;
78224;SDS011;67498;53.650;10.090;2024-01-30T11:33:59;14.40;;;4.67;;
78224;SDS011;67498;53.650;10.090;2024-01-30T11:36:25;14.85;;;4.72;;
78224;SDS011;67498;53.650;10.090;2024-01-30T11:38:52;13.20;;;3.93;;
78224;SDS011;67498;53.650;10.090;2024-01-30T11:41:17;10.20;;;3.88;;
78224;SDS011;67498;53.650;10.090;2024-01-30T11:43:43;15.57;;;4.27;;
78224;SDS011;67498;53.650;10.090;2024-01-30T11:46:08;13.47;;;4.20;;
78224;SDS011;67498;53.650;10.090;2024-01-30T11:48:34;8.20;;;3.10;;
78224;SDS011;67498;53.650;10.090;2024-01-30T11:51:00;9.47;;;3.60;;
78224;SDS011;67498;53.650;10.090;2024-01-30T11:53:25;9.77;;;3.57;;
78224;SDS011;67498;53.650;10.090;2024-01-30T11:55:52;11.05;;;3.88;;
78224;SDS011;67498;53.650;10.090;2024-01-30T11:58:17;12.00;;;3.95;;
78224;SDS011;67498;53.650;10.090;2024-01-30T12:00:43;10.77;;;3.27;;
78224;SDS011;67498;53.650;10.090;2024-01-30T12:03:18;9.88;;;4.13;;
78224;SDS011;67498;53.650;10.090;2024-01-30T12:05:43;13.53;;;3.80;;
78224;SDS011;67498;53.650;10.090;2024-01-30T12:08:14;11.47;;;3.60;;
78224;SDS011;67498;53.650;10.090;2024-01-30T12:10:40;11.68;;;4.25;;
78224;SDS011;67498;53.650;10.090;2024-01-30T12:13:05;10.20;;;4.53;;
78224;SDS011;67498;53.650;10.090;2024-01-30T12:15:31;10.53;;;4.10;;
78224;SDS011;67498;53.650;10.090;2024-01-30T12:18:06;10.18;;;4.28;;
78224;SDS011;67498;53.650;10.090;2024-01-30T12:20:32;11.57;;;4.43;;
78224;SDS011;67498;53.650;10.090;2024-01-30T12:22:58;10.13;;;3.72;;
78224;SDS011;67498;53.650;10.090;2024-01-30T12:25:23;13.20;;;4.27;;
78224;SDS011;67498;53.650;10.090;2024-01-30T12:27:49;12.30;;;3.93;;
78224;SDS011;67498;53.650;10.090;2024-01-30T12:30:16;11.57;;;3.65;;
78224;SDS011;67498;53.650;10.090;2024-01-30T12:32:43;10.23;;;4.10;;
78224;SDS011;67498;53.650;10.090;2024-01-30T12:35:09;10.90;;;3.78;;
78224;SDS011;67498;53.650;10.090;2024-01-30T12:37:36;11.32;;;4.38;;
78224;SDS011;67498;53.650;10.090;2024-01-30T12:40:01;9.73;;;3.83;;
78224;SDS011;67498;53.650;10.090;2024-01-30T12:42:27;9.40;;;3.77;;
78224;SDS011;67498;53.650;10.090;2024-01-30T12:44:52;10.10;;;3.80;;
78224;SDS011;67498;53.650;10.090;2024-01-30T12:47:18;14.33;;;4.83;;
78224;SDS011;67498;53.650;10.090;2024-01-30T12:49:43;11.70;;;4.10;;
78224;SDS011;67498;53.650;10.090;2024-01-30T12:52:09;11.90;;;4.10;;
78224;SDS011;67498;53.650;10.090;2024-01-30T12:54:38;11.48;;;4.50;;
78224;SDS011;67498;53.650;10.090;2024-01-30T12:57:04;11.83;;;4.80;;
78224;SDS011;67498;53.650;10.090;2024-01-30T12:59:30;27.73;;;11.45;;
78224;SDS011;67498;53.650;10.090;2024-01-30T13:01:55;12.77;;;4.90;;
78224;SDS011;67498;53.650;10.090;2024-01-30T13:04:22;12.63;;;4.47;;
78224;SDS011;67498;53.650;10.090;2024-01-30T13:06:47;10.00;;;3.92;;
78224;SDS011;67498;53.650;10.090;2024-01-30T13:09:13;8.47;;;3.47;;
78224;SDS011;67498;53.650;10.090;2024-01-30T13:11:38;22.97;;;6.93;;
78224;SDS011;67498;53.650;10.090;2024-01-30T13:14:03;25.00;;;8.50;;
78224;SDS011;67498;53.650;10.090;2024-01-30T13:16:28;21.83;;;8.00;;
78224;SDS011;67498;53.650;10.090;2024-01-30T13:18:54;11.90;;;4.17;;
78224;SDS011;67498;53.650;10.090;2024-01-30T13:21:20;12.55;;;3.65;;
78224;SDS011;67498;53.650;10.090;2024-01-30T13:23:46;16.10;;;4.37;;
78224;SDS011;67498;53.650;10.090;2024-01-30T13:26:11;11.53;;;3.70;;
78224;SDS011;67498;53.650;10.090;2024-01-30T13:28:37;9.68;;;3.42;;
78224;SDS011;67498;53.650;10.090;2024-01-30T13:31:02;9.40;;;3.43;;
78224;SDS011;67498;53.650;10.090;2024-01-30T13:33:27;11.15;;;3.60;;
78224;SDS011;67498;53.650;10.090;2024-01-30T13:35:53;8.50;;;3.27;;
78224;SDS011;67498;53.650;10.090;2024-01-30T13:38:18;9.90;;;3.83;;
78224;SDS011;67498;53.650;10.090;2024-01-30T13:40:43;13.80;;;3.67;;
78224;SDS011;67498;53.650;10.090;2024-01-30T13:43:09;18.40;;;3.80;;
78224;SDS011;67498;53.650;10.090;2024-01-30T13:45:34;10.10;;;3.30;;
78224;SDS011;67498;53.650;10.090;2024-01-30T13:48:00;9.05;;;3.13;;
78224;SDS011;67498;53.650;10.090;2024-01-30T13:50:26;8.63;;;3.43;;
78224;SDS011;67498;53.650;10.090;2024-01-30T13:52:51;11.07;;;4.07;;
78224;SDS011;67498;53.650;10.090;2024-01-30T13:55:16;12.37;;;4.27;;
78224;SDS011;67498;53.650;10.090;2024-01-30T13:57:41;8.93;;;3.77;;
78224;SDS011;67498;53.650;10.090;2024-01-30T14:00:08;12.80;;;3.65;;
78224;SDS011;67498;53.650;10.090;2024-01-30T14:02:34;11.45;;;3.70;;
78224;SDS011;67498;53.650;10.090;2024-01-30T14:04:59;10.73;;;3.90;;
78224;SDS011;67498;53.650;10.090;2024-01-30T14:07:24;12.90;;;3.60;;
78224;SDS011;67498;53.650;10.090;2024-01-30T14:09:50;9.53;;;3.50;;
78224;SDS011;67498;53.650;10.090;2024-01-30T14:12:15;12.60;;;4.20;;
78224;SDS011;67498;53.650;10.090;2024-01-30T14:14:40;9.93;;;3.57;;
78224;SDS011;67498;53.650;10.090;2024-01-30T14:17:06;10.50;;;3.70;;
78224;SDS011;67498;53.650;10.090;2024-01-30T14:19:32;9.45;;;3.25;;